Time;durP1;ratioP1;P1;durP2;ratioP2;P2;SDS_P1;SDS_P2;PMS_P1;PMS_P2;Temp;Humidity;BMP_temperature;BMP_pressure;BME280_temperature;BME280_humidity;BME280_pressure;Samples;Min_cycle;Max_cycle;Signal;HPM_P1;HPM_P2
2022/09/28 00:02:16;;;;;;;6.90;4.30;;;;;;;-141.28;100.00;47924.69;5094830;28;20227;-75
2022/09/28 00:04:43;;;;;;;4.37;3.97;;;;;;;-141.28;100.00;47922.72;5102827;28;20256;-75
2022/09/28 00:07:11;;;;;;;5.60;3.73;;;;;;;-141.28;100.00;47934.50;5112015;28;20738;-76
2022/09/28 00:09:43;;;;;;;5.13;4.20;;;;;;;-141.28;100.00;47942.34;5102340;28;20191;-75
2022/09/28 00:12:10;;;;;;;6.80;3.97;;;;;;;-141.28;100.00;47934.50;5110030;28;20230;-77
2022/09/28 00:14:39;;;;;;;6.93;3.63;;;;;;;-141.28;100.00;47940.38;5103322;28;20282;-77
2022/09/28 00:17:07;;;;;;;5.50;3.70;;;;;;;-141.28;100.00;47928.63;5105117;28;20287;-77
2022/09/28 00:19:34;;;;;;;7.03;4.37;;;;;;;-141.28;100.00;47940.38;5090657;28;20269;-77
2022/09/28 00:22:02;;;;;;;7.00;4.30;;;;;;;-141.28;100.00;47952.16;5078974;28;20222;-75
2022/09/28 00:24:30;;;;;;;7.27;4.10;;;;;;;-141.28;100.00;47952.16;5094040;28;20643;-75
2022/09/28 00:27:01;;;;;;;7.83;4.40;;;;;;;-141.28;100.00;47952.16;5094645;28;20206;-76
2022/09/28 00:29:31;;;;;;;9.87;4.60;;;;;;;-141.28;100.00;47956.06;5079092;28;20196;-78
2022/09/28 00:32:01;;;;;;;6.83;4.10;;;;;;;-141.28;100.00;47963.94;5083442;28;20306;-77
2022/09/28 00:34:30;;;;;;;4.57;3.30;;;;;;;-141.28;100.00;47975.69;5114686;28;20195;-77
2022/09/28 00:36:58;;;;;;;8.33;3.70;;;;;;;-141.28;100.00;47973.72;5094934;28;20232;-76
2022/09/28 00:39:25;;;;;;;6.90;3.80;;;;;;;-141.28;100.00;47973.72;5074149;28;20254;-77
2022/09/28 00:41:54;;;;;;;4.23;3.83;;;;;;;-141.28;100.00;47975.69;5073532;28;20257;-76
2022/09/28 00:44:42;;;;;;;5.13;4.20;;;;;;;-141.28;100.00;47991.38;5094551;28;20215;-76
2022/09/28 00:47:31;;;;;;;6.67;4.80;;;;;;;-141.28;100.00;47987.47;5087054;28;20195;-75
2022/09/28 00:50:04;;;;;;;5.77;4.60;;;;;;;-141.28;100.00;47997.28;5098619;28;20227;-76
2022/09/28 00:52:35;;;;;;;6.87;4.70;;;;;;;-141.28;100.00;47987.47;5102539;28;20215;-77
2022/09/28 00:55:06;;;;;;;6.27;4.50;;;;;;;-141.28;100.00;47983.53;5060799;28;20564;-75
2022/09/28 00:57:36;;;;;;;7.60;4.00;;;;;;;-141.28;100.00;47979.63;5082943;28;20192;-77
2022/09/28 01:00:07;;;;;;;9.93;5.03;;;;;;;-141.28;100.00;47987.47;5094623;28;20205;-76
2022/09/28 01:02:36;;;;;;;9.87;5.20;;;;;;;-141.28;100.00;47991.38;5088053;28;20283;-77
2022/09/28 01:05:05;;;;;;;6.33;5.57;;;;;;;-141.28;100.00;47983.53;5102811;28;20204;-77
2022/09/28 01:07:34;;;;;;;9.43;7.07;;;;;;;-141.28;100.00;48005.13;5093355;28;20235;-76
2022/09/28 01:10:05;;;;;;;12.00;9.13;;;;;;;-141.28;100.00;47985.50;5109067;28;20256;-76
2022/09/28 01:12:32;;;;;;;13.97;10.83;;;;;;;-141.28;100.00;47987.47;5080307;28;20250;-77
2022/09/28 01:15:01;;;;;;;19.33;11.50;;;;;;;-141.28;100.00;47967.84;5107176;28;20202;-77
2022/09/28 01:17:43;;;;;;;77.57;14.00;;;;;;;-141.28;100.00;47975.69;5105173;28;20199;-76
2022/09/28 01:20:42;;;;;;;183.13;17.47;;;;;;;-141.28;100.00;47979.63;5096185;28;20191;-77
2022/09/28 01:23:39;;;;;;;104.63;12.63;;;;;;;-141.28;100.00;47973.72;5112076;28;20199;-76
2022/09/28 01:26:39;;;;;;;138.40;13.90;;;;;;;-141.28;100.00;47971.78;5113033;28;20243;-76
2022/09/28 01:29:17;;;;;;;200.83;17.50;;;;;;;-141.28;100.00;47936.47;5081211;28;20195;-77
2022/09/28 01:31:50;;;;;;;92.57;13.77;;;;;;;-141.28;100.00;47928.63;5100116;28;20280;-77
2022/09/28 01:34:24;;;;;;;86.73;14.47;;;;;;;-141.28;100.00;47932.53;5105221;28;20199;-77
2022/09/28 01:36:55;;;;;;;134.60;16.37;;;;;;;-141.28;100.00;47920.78;5092350;28;20199;-76
2022/09/28 01:39:26;;;;;;;122.10;17.53;;;;;;;-141.28;100.00;47912.94;5112833;28;20198;-78
2022/09/28 01:41:58;;;;;;;187.07;17.50;;;;;;;-141.28;100.00;47920.78;5111200;28;20203;-76
2022/09/28 01:44:29;;;;;;;103.67;16.60;;;;;;;-141.28;100.00;47901.16;5111834;28;20187;-78
2022/09/28 01:47:03;;;;;;;76.47;14.60;;;;;;;-141.28;100.00;47905.09;5112195;28;20608;-77
2022/09/28 01:49:35;;;;;;;73.23;13.73;;;;;;;-141.28;100.00;47909.00;5112783;28;20274;-75
2022/09/28 01:52:11;;;;;;;43.10;13.70;;;;;;;-141.28;100.00;47912.94;5112378;28;20222;-77
2022/09/28 01:54:43;;;;;;;43.40;13.50;;;;;;;-141.28;100.00;47909.00;5112615;28;20202;-75
2022/09/28 01:57:18;;;;;;;94.50;16.93;;;;;;;-141.28;100.00;47905.09;5097305;28;20552;-77
2022/09/28 01:59:52;;;;;;;50.67;14.13;;;;;;;-141.28;100.00;47903.13;5076385;28;20207;-75
2022/09/28 02:02:25;;;;;;;30.43;12.10;;;;;;;-141.28;100.00;47905.09;5075419;28;20215;-77
2022/09/28 02:04:56;;;;;;;45.13;13.63;;;;;;;-141.28;100.00;47903.13;5102923;28;20219;-78
2022/09/28 02:07:31;;;;;;;30.03;12.87;;;;;;;-141.28;100.00;47897.25;5081090;28;20204;-77
2022/09/28 02:10:08;;;;;;;29.20;13.40;;;;;;;-141.28;100.00;47889.38;5110208;28;20653;-78
2022/09/28 02:12:41;;;;;;;39.17;12.87;;;;;;;-141.28;100.00;47889.38;5097671;28;20258;-77
2022/09/28 02:15:13;;;;;;;35.77;13.77;;;;;;;-141.28;100.00;47881.53;5092588;28;20203;-76
2022/09/28 02:17:40;;;;;;;66.13;14.67;;;;;;;-141.28;100.00;47869.78;5078761;28;20204;-78
2022/09/28 02:20:09;;;;;;;84.40;14.97;;;;;;;-141.28;100.00;47869.78;5091931;28;20207;-77
2022/09/28 02:22:42;;;;;;;57.87;13.83;;;;;;;-141.28;100.00;47865.84;5107483;28;20294;-76
2022/09/28 02:25:13;;;;;;;53.57;12.87;;;;;;;-141.28;100.00;47861.94;5112403;28;20260;-78
2022/09/28 02:27:49;;;;;;;72.30;13.77;;;;;;;-141.28;100.00;47865.84;5111739;28;20209;-75
2022/09/28 02:30:18;;;;;;;75.10;14.47;;;;;;;-141.28;100.00;47856.03;5111847;28;20725;-77
2022/09/28 02:32:49;;;;;;;57.73;13.43;;;;;;;-141.28;100.00;47848.19;5117268;28;20249;-77
2022/09/28 02:35:19;;;;;;;87.27;14.57;;;;;;;-141.28;100.00;47842.31;5123158;28;20199;-75
2022/09/28 02:37:48;;;;;;;43.87;14.37;;;;;;;-141.28;100.00;47842.31;5086193;28;20253;-75
2022/09/28 02:40:17;;;;;;;84.13;14.37;;;;;;;-141.28;100.00;47842.31;5086454;28;20203;-77
2022/09/28 02:42:53;;;;;;;69.77;13.30;;;;;;;-141.28;100.00;47834.47;5091674;28;20203;-75
2022/09/28 02:45:34;;;;;;;100.13;14.63;;;;;;;-141.28;100.00;47826.63;5088006;28;20709;-76
2022/09/28 02:48:16;;;;;;;80.13;13.57;;;;;;;-141.28;100.00;47830.56;5072010;28;20204;-77
2022/09/28 02:50:55;;;;;;;65.67;11.90;;;;;;;-141.28;100.00;47830.56;5071831;28;20208;-77
2022/09/28 02:53:50;;;;;;;74.50;13.20;;;;;;;-141.28;100.00;47822.72;5075109;28;20662;-77
2022/09/28 02:56:31;;;;;;;49.23;13.03;;;;;;;-141.28;100.00;47822.72;5078237;28;20196;-76
2022/09/28 02:59:11;;;;;;;24.70;12.30;;;;;;;-141.28;100.00;47807.00;5080628;28;20195;-75
2022/09/28 03:01:48;;;;;;;71.20;15.27;;;;;;;-141.28;100.00;47803.09;5075565;28;20257;-76
2022/09/28 03:04:26;;;;;;;46.37;12.63;;;;;;;-141.28;100.00;47801.13;5083818;28;20194;-77
2022/09/28 03:07:13;;;;;;;38.03;11.87;;;;;;;-141.28;100.00;47801.13;5092043;28;20653;-79
2022/09/28 03:09:59;;;;;;;25.23;11.77;;;;;;;-141.28;100.00;47803.09;5074862;28;20204;-79
2022/09/28 03:12:32;;;;;;;43.20;11.97;;;;;;;-141.28;100.00;47789.38;5084090;28;20270;-77
2022/09/28 03:15:36;;;;;;;121.57;15.13;;;;;;;-141.28;100.00;47807.00;5085143;28;20219;-78
2022/09/28 03:18:03;;;;;;;77.10;12.47;;;;;;;-141.28;100.00;47789.38;5071969;28;20261;-77
2022/09/28 03:20:34;;;;;;;118.67;13.57;;;;;;;-141.28;100.00;47785.44;5084563;28;20235;-77
2022/09/28 03:23:04;;;;;;;109.50;13.67;;;;;;;-141.28;100.00;47795.25;5071664;28;20212;-77
2022/09/28 03:25:31;;;;;;;71.77;11.73;;;;;;;-141.28;100.00;47795.25;5071597;28;20237;-76
2022/09/28 03:27:58;;;;;;;101.13;13.90;;;;;;;-141.28;100.00;47789.38;5072528;28;20222;-75
2022/09/28 03:30:28;;;;;;;134.97;14.50;;;;;;;-141.28;100.00;47789.38;5079548;28;20662;-78
2022/09/28 03:33:01;;;;;;;66.40;11.63;;;;;;;-141.28;100.00;47795.25;5076517;28;20265;-78
2022/09/28 03:35:29;;;;;;;51.13;12.47;;;;;;;-141.28;100.00;47787.41;5072175;28;20210;-78
2022/09/28 03:37:57;;;;;;;27.13;11.20;;;;;;;-141.28;100.00;47787.41;5075445;28;20638;-77
2022/09/28 03:40:24;;;;;;;43.90;12.13;;;;;;;-141.28;100.00;47793.28;5091145;28;20200;-78
2022/09/28 03:42:52;;;;;;;36.33;12.10;;;;;;;-141.28;100.00;47785.44;5091553;28;20719;-80
2022/09/28 03:45:20;;;;;;;33.50;12.87;;;;;;;-141.28;100.00;47793.28;5073209;28;20205;-77
2022/09/28 03:47:49;;;;;;;25.00;12.40;;;;;;;-141.28;100.00;47787.41;5078596;28;20558;-76
2022/09/28 03:50:16;;;;;;;40.73;12.40;;;;;;;-141.28;100.00;47791.31;5095965;28;20191;-77
2022/09/28 03:52:43;;;;;;;52.63;12.57;;;;;;;-141.28;100.00;47789.38;5098883;28;20231;-78
2022/09/28 03:55:10;;;;;;;23.60;10.77;;;;;;;-141.28;100.00;47785.44;5085966;28;20197;-76
2022/09/28 03:57:39;;;;;;;38.23;11.10;;;;;;;-141.28;100.00;47787.41;5070899;28;20197;-77
2022/09/28 04:00:08;;;;;;;20.90;11.27;;;;;;;-141.28;100.00;47793.28;5107194;28;20202;-75
2022/09/28 04:02:35;;;;;;;28.40;12.07;;;;;;;-141.28;100.00;47791.31;5093794;28;20200;-76
2022/09/28 04:05:04;;;;;;;15.43;10.17;;;;;;;-141.28;100.00;47789.38;5111809;28;20195;-77
2022/09/28 04:07:31;;;;;;;14.30;9.20;;;;;;;-141.28;100.00;47795.25;5101627;28;20203;-76
2022/09/28 04:09:58;;;;;;;15.90;9.63;;;;;;;-141.28;100.00;47785.44;5089013;28;20287;-78
2022/09/28 04:12:26;;;;;;;15.33;9.60;;;;;;;-141.28;100.00;47793.28;5073592;28;20240;-76
2022/09/28 04:14:56;;;;;;;19.67;10.27;;;;;;;-141.28;100.00;47789.38;5074410;28;20204;-77
2022/09/28 04:17:24;;;;;;;12.83;8.53;;;;;;;-141.28;100.00;47805.06;5074546;28;20211;-78
2022/09/28 04:19:52;;;;;;;17.33;9.47;;;;;;;-141.28;100.00;47799.16;5100226;28;20203;-76
2022/09/28 04:22:20;;;;;;;15.17;9.40;;;;;;;-141.28;100.00;47799.16;5088677;28;20200;-77
2022/09/28 04:24:48;;;;;;;14.57;8.63;;;;;;;-141.28;100.00;47797.22;5114712;28;20203;-75
2022/09/28 04:29:59;;;;;;;12.63;8.90;;;;;;;-141.28;100.00;47810.94;5071602;28;20256;-75
2022/09/28 04:32:27;;;;;;;14.17;9.00;;;;;;;-141.28;100.00;47807.00;5109716;28;20221;-78
2022/09/28 04:34:54;;;;;;;16.07;9.00;;;;;;;-141.28;100.00;47799.16;5095480;28;20202;-75
2022/09/28 04:37:22;;;;;;;16.80;10.10;;;;;;;-141.28;100.00;47803.09;5114321;28;20219;-76
2022/09/28 04:39:50;;;;;;;21.00;10.13;;;;;;;-141.28;100.00;47801.13;5117417;28;20198;-75
2022/09/28 04:42:16;;;;;;;14.80;9.70;;;;;;;-141.28;100.00;47799.16;5110524;28;20195;-75
2022/09/28 04:44:45;;;;;;;13.13;9.40;;;;;;;-141.28;100.00;47801.13;5105671;28;20195;-78
2022/09/28 04:47:12;;;;;;;17.03;8.60;;;;;;;-141.28;100.00;47795.25;5093919;28;20203;-75
2022/09/28 04:49:39;;;;;;;12.97;8.97;;;;;;;-141.28;100.00;47799.16;5106017;28;20202;-76
2022/09/28 04:52:06;;;;;;;16.23;10.60;;;;;;;-141.28;100.00;47791.31;5113063;28;20592;-78
2022/09/28 04:54:36;;;;;;;15.77;9.37;;;;;;;-141.28;100.00;47805.06;5113559;28;20282;-76
2022/09/28 04:57:04;;;;;;;14.30;9.97;;;;;;;-141.28;100.00;47807.00;5073316;28;20198;-76
2022/09/28 04:59:32;;;;;;;17.37;10.30;;;;;;;-141.28;100.00;47807.00;5073609;28;20201;-77
2022/09/28 05:01:59;;;;;;;14.23;10.77;;;;;;;-141.28;100.00;47814.84;5075584;28;20261;-77
2022/09/28 05:04:27;;;;;;;13.53;10.27;;;;;;;-141.28;100.00;47808.97;5073306;28;20265;-77
2022/09/28 05:06:54;;;;;;;16.20;11.47;;;;;;;-141.28;100.00;47805.06;5073468;28;20732;-77
2022/09/28 05:09:21;;;;;;;16.97;12.60;;;;;;;-141.28;100.00;47808.97;5073963;28;20208;-76
2022/09/28 05:11:51;;;;;;;20.63;12.47;;;;;;;-141.28;100.00;47810.94;5093522;28;20222;-79
2022/09/28 05:14:20;;;;;;;22.20;12.63;;;;;;;-141.28;100.00;47818.78;5079490;28;20315;-75
2022/09/28 05:16:48;;;;;;;22.10;12.63;;;;;;;-141.28;100.00;47807.00;5073534;28;20200;-77
2022/09/28 05:19:16;;;;;;;21.03;13.40;;;;;;;-141.28;100.00;47810.94;5088124;28;20261;-78
2022/09/28 05:21:45;;;;;;;20.80;12.87;;;;;;;-141.28;100.00;47818.78;5093176;28;20198;-78
2022/09/28 05:24:13;;;;;;;29.77;14.33;;;;;;;-141.28;100.00;47818.78;5080675;28;20207;-76
2022/09/28 05:26:41;;;;;;;23.33;14.27;;;;;;;-141.28;100.00;47820.75;5093577;28;20196;-77
2022/09/28 05:29:09;;;;;;;20.23;13.57;;;;;;;-141.28;100.00;47822.72;5078196;28;20199;-77
2022/09/28 05:31:36;;;;;;;24.47;14.20;;;;;;;-141.28;100.00;47830.56;5073123;28;20192;-76
2022/09/28 05:34:05;;;;;;;27.10;14.40;;;;;;;-141.28;100.00;47838.41;5074205;28;20192;-74
2022/09/28 05:36:32;;;;;;;26.43;14.70;;;;;;;-141.28;100.00;47834.47;5073384;28;20599;-78
2022/09/28 05:39:02;;;;;;;21.00;14.13;;;;;;;-141.28;100.00;47842.31;5072993;28;20283;-75
2022/09/28 05:41:30;;;;;;;24.33;14.77;;;;;;;-141.28;100.00;47830.56;5066338;28;20325;-75
2022/09/28 05:43:57;;;;;;;22.93;14.80;;;;;;;-141.28;100.00;47850.16;5073521;28;20207;-76
2022/09/28 05:46:26;;;;;;;25.53;15.90;;;;;;;-141.28;100.00;47838.41;5084898;28;20207;-76
2022/09/28 05:48:55;;;;;;;27.13;15.03;;;;;;;-141.28;100.00;47838.41;5081880;28;20265;-77
2022/09/28 05:51:23;;;;;;;37.20;16.23;;;;;;;-141.28;100.00;47844.28;5072854;28;20211;-76
2022/09/28 05:53:50;;;;;;;74.97;17.17;;;;;;;-141.28;100.00;47846.25;5078561;28;20685;-77
2022/09/28 05:56:17;;;;;;;142.27;19.37;;;;;;;-141.28;100.00;47842.31;5092650;28;20661;-77
2022/09/28 05:58:46;;;;;;;71.60;19.13;;;;;;;-141.28;100.00;47846.25;5085866;28;20208;-77
2022/09/28 06:01:13;;;;;;;88.93;18.30;;;;;;;-141.28;100.00;47850.16;5086073;28;20204;-78
2022/09/28 06:03:42;;;;;;;54.97;21.83;;;;;;;-141.28;100.00;47850.16;5086919;28;20793;-77
2022/09/28 06:06:09;;;;;;;52.00;19.20;;;;;;;-141.28;100.00;47859.97;5110301;28;20610;-75
2022/09/28 06:08:36;;;;;;;115.90;20.00;;;;;;;-141.28;100.00;47861.94;5099548;28;20191;-76
2022/09/28 06:11:03;;;;;;;84.03;22.80;;;;;;;-141.28;100.00;47871.75;5097068;28;20207;-77
2022/09/28 06:13:31;;;;;;;53.83;22.20;;;;;;;-141.28;100.00;47873.69;5111470;28;20234;-76
2022/09/28 06:15:58;;;;;;;51.07;23.77;;;;;;;-141.28;100.00;47877.63;5095417;28;20195;-76
2022/09/28 06:18:26;;;;;;;57.17;21.40;;;;;;;-141.28;100.00;47893.31;5099983;28;20621;-77
2022/09/28 06:20:54;;;;;;;38.13;19.13;;;;;;;-141.28;100.00;47889.38;5110043;28;20202;-74
2022/09/28 06:23:21;;;;;;;30.20;15.00;;;;;;;-141.28;100.00;47897.25;5114204;28;20260;-75
2022/09/28 06:25:48;;;;;;;31.47;15.80;;;;;;;-141.28;100.00;47905.09;5117548;28;20199;-76
2022/09/28 06:28:16;;;;;;;26.77;15.73;;;;;;;-141.28;100.00;47912.94;5111643;28;20207;-75
2022/09/28 06:30:46;;;;;;;31.33;16.07;;;;;;;-141.28;100.00;47918.81;5106208;28;20194;-75
2022/09/28 06:33:15;;;;;;;27.47;14.80;;;;;;;-141.28;100.00;47928.63;5100481;28;20223;-76
2022/09/28 06:35:42;;;;;;;27.13;14.87;;;;;;;-141.28;100.00;47938.44;5095387;28;20634;-76
2022/09/28 06:38:13;;;;;;;24.83;14.80;;;;;;;-141.28;100.00;47952.16;5099256;28;20282;-76
2022/09/28 06:40:40;;;;;;;21.00;13.67;;;;;;;-141.28;100.00;47944.31;5095136;28;20202;-75
2022/09/28 06:43:10;;;;;;;24.23;13.03;;;;;;;-141.28;100.00;47956.06;5110751;28;20649;-76
2022/09/28 06:45:38;;;;;;;20.27;12.60;;;;;;;-141.28;100.00;47954.13;5089262;28;20203;-78
2022/09/28 06:48:06;;;;;;;18.13;11.87;;;;;;;-141.28;100.00;47971.78;5090273;28;20192;-76
2022/09/28 06:50:36;;;;;;;21.30;12.53;;;;;;;-141.28;100.00;47975.69;5108928;28;20615;-78
2022/09/28 06:53:03;;;;;;;17.57;11.87;;;;;;;-141.28;100.00;48005.13;5108153;28;20250;-75
2022/09/28 06:55:32;;;;;;;17.03;10.70;;;;;;;-141.28;100.00;48030.63;5089654;28;20268;-78
2022/09/28 06:58:00;;;;;;;22.40;12.90;;;;;;;-141.28;100.00;48048.25;5101737;28;20552;-76
2022/09/28 07:00:32;;;;;;;26.40;13.40;;;;;;;-141.28;100.00;48069.84;5109998;28;20724;-78
2022/09/28 07:03:02;;;;;;;27.73;15.47;;;;;;;-141.28;100.00;48093.38;5079182;28;20663;-77
2022/09/28 07:05:30;;;;;;;26.17;14.70;;;;;;;-141.28;100.00;48101.22;5071360;28;20724;-77
2022/09/28 07:07:57;;;;;;;25.20;15.33;;;;;;;-141.28;100.00;48116.91;5098336;28;20717;-75
2022/09/28 07:10:26;;;;;;;30.70;16.13;;;;;;;-141.28;100.00;48109.06;5080819;28;20565;-76
2022/09/28 07:12:55;;;;;;;28.40;15.30;;;;;;;-141.28;100.00;48185.56;5088129;28;20355;-76
2022/09/28 07:15:24;;;;;;;30.07;16.13;;;;;;;-141.28;100.00;48224.81;5082221;28;20192;-76
2022/09/28 07:17:57;;;;;;;20.93;13.93;;;;;;;-141.28;100.00;48289.53;5091145;28;20207;-78
2022/09/28 07:20:25;;;;;;;13.93;10.63;;;;;;;-141.28;100.00;48379.78;5091195;28;20278;-77
2022/09/28 07:22:54;;;;;;;14.73;10.63;;;;;;;-141.28;100.00;48458.22;5109105;28;20199;-78
2022/09/28 07:25:22;;;;;;;16.53;12.03;;;;;;;-141.28;100.00;48570.06;5098920;28;20223;-79
2022/09/28 07:27:51;;;;;;;13.73;10.47;;;;;;;-141.28;100.00;48677.94;5098399;28;20711;-77
2022/09/28 07:30:20;;;;;;;11.17;8.53;;;;;;;-141.28;100.00;48666.19;5070823;28;20207;-76
2022/09/28 07:32:47;;;;;;;10.27;7.63;;;;;;;-141.28;100.00;48650.50;5085862;28;20223;-75
2022/09/28 07:35:16;;;;;;;8.30;7.33;;;;;;;-141.28;100.00;48670.09;5071405;28;20522;-78
2022/09/28 07:37:43;;;;;;;11.03;7.13;;;;;;;-141.28;100.00;48626.94;5071261;28;20596;-76
2022/09/28 07:42:54;;;;;;;7.13;6.40;;;;;;;-141.28;100.00;48681.88;5084698;28;20262;-75
2022/09/28 07:45:23;;;;;;;9.97;5.73;;;;;;;-141.28;100.00;48654.41;5090056;28;20203;-75
2022/09/28 07:47:55;;;;;;;8.50;5.97;;;;;;;-141.28;100.00;48666.19;5103938;28;20651;-75
2022/09/28 07:50:22;;;;;;;9.00;5.53;;;;;;;-141.28;100.00;48711.31;5094644;28;20188;-76
2022/09/28 07:52:50;;;;;;;11.97;5.33;;;;;;;-141.28;100.00;48783.91;5084828;28;20234;-75
2022/09/28 07:55:17;;;;;;;8.97;4.50;;;;;;;-141.28;100.00;48807.44;5108201;28;20203;-76
2022/09/28 07:57:45;;;;;;;6.43;4.13;;;;;;;-141.28;100.00;48952.63;5094306;28;20646;-76
2022/09/28 08:00:14;;;;;;;13.00;3.47;;;;;;;-141.28;100.00;49199.84;5110961;28;20199;-77
2022/09/28 08:02:43;;;;;;;7.07;3.13;;;;;;;-141.28;100.00;49521.63;5090583;28;20730;-75
2022/09/28 08:05:11;;;;;;;7.07;3.07;;;;;;;-141.28;100.00;49894.50;5107896;28;20272;-78
2022/09/28 08:07:38;;;;;;;4.17;3.10;;;;;;;-141.28;100.00;49996.56;5094659;28;20195;-75
2022/09/28 08:10:06;;;;;;;8.90;3.00;;;;;;;-141.28;100.00;50014.22;5114256;28;20195;-77
2022/09/28 08:12:33;;;;;;;6.20;3.67;;;;;;;-141.28;100.00;49935.72;5099419;28;20273;-76
2022/09/28 08:15:00;;;;;;;5.20;3.00;;;;;;;-141.28;100.00;49882.72;5106460;28;20199;-76
2022/09/28 08:17:28;;;;;;;6.20;3.27;;;;;;;-141.28;100.00;49831.69;5093843;28;20286;-77
2022/09/28 08:22:41;;;;;;;12.47;3.77;;;;;;;-141.28;100.00;49869.00;5112576;28;20198;-77
2022/09/28 08:25:08;;;;;;;15.00;5.77;;;;;;;-141.28;100.00;49823.84;5093422;28;20610;-77
2022/09/28 08:27:36;;;;;;;10.37;4.60;;;;;;;-141.28;100.00;49780.69;5096028;28;20198;-76
2022/09/28 08:30:02;;;;;;;22.97;6.47;;;;;;;-141.28;100.00;49723.75;5113181;28;20259;-76
2022/09/28 08:32:31;;;;;;;11.20;4.80;;;;;;;-141.28;100.00;49721.81;5098789;28;20198;-76
2022/09/28 08:35:00;;;;;;;15.63;5.47;;;;;;;-141.28;100.00;49666.84;5113383;28;20206;-76
2022/09/28 08:37:28;;;;;;;13.97;5.13;;;;;;;-141.28;100.00;49580.50;5112726;28;20199;-79
2022/09/28 08:39:55;;;;;;;10.87;5.63;;;;;;;-141.28;100.00;49458.84;5101296;28;20208;-75
2022/09/28 08:42:32;;;;;;;12.43;4.93;;;;;;;-141.28;100.00;49525.56;5109267;28;20219;-74
2022/09/28 08:45:07;;;;;;;12.77;4.80;;;;;;;-141.28;100.00;49643.31;5111555;28;20213;-79
2022/09/28 08:50:48;;;;;;;12.60;5.03;;;;;;;-141.28;100.00;49843.47;5069475;28;20202;-76
2022/09/28 08:53:31;;;;;;;10.83;5.10;;;;;;;-141.28;100.00;49959.25;5091605;28;20240;-75
2022/09/28 08:56:02;;;;;;;12.20;4.50;;;;;;;-141.28;100.00;49923.94;5102990;28;20194;-75
2022/09/28 08:58:34;;;;;;;17.53;5.73;;;;;;;-141.28;100.00;49906.28;5105213;28;20642;-75
2022/09/28 09:01:05;;;;;;;12.83;5.23;;;;;;;-141.28;100.00;49945.53;5092428;28;20195;-78
2022/09/28 09:03:36;;;;;;;7.70;5.00;;;;;;;-141.28;100.00;50184.97;5079680;28;20199;-76
2022/09/28 09:06:16;;;;;;;11.80;4.57;;;;;;;-141.28;100.00;50343.94;5093234;28;20195;-77
2022/09/28 09:08:56;;;;;;;7.30;3.07;;;;;;;-141.28;100.00;50618.75;5080932;28;20721;-76
2022/09/28 09:11:38;;;;;;;11.43;3.03;;;;;;;-141.28;100.00;51044.75;5110017;28;20198;-76
2022/09/28 09:14:35;;;;;;;5.73;2.97;;;;;;;-141.28;100.00;51594.47;5113240;28;20275;-78
2022/09/28 09:17:13;;;;;;;9.97;2.67;;;;;;;-141.28;100.00;52057.91;5083524;28;20203;-76
2022/09/28 09:19:52;;;;;;;5.73;2.63;;;;;;;-141.28;100.00;52431.03;5111515;28;20199;-78
2022/09/28 09:22:35;;;;;;;5.77;2.73;;;;;;;-141.28;100.00;52431.03;5112139;28;20261;-76
2022/09/28 09:25:17;;;;;;;6.43;2.70;;;;;;;-141.28;100.00;52364.25;5083331;28;20211;-78
2022/09/28 09:27:55;;;;;;;7.77;2.50;;;;;;;-141.28;100.00;52234.66;5086010;28;20202;-75
2022/09/28 09:30:23;;;;;;;10.10;3.00;;;;;;;-141.28;100.00;52105.03;5072325;28;20256;-76
2022/09/28 09:33:07;;;;;;;6.20;2.80;;;;;;;-141.28;100.00;52213.03;5079566;28;20281;-74
2022/09/28 09:36:02;;;;;;;8.10;2.57;;;;;;;-141.28;100.00;52116.81;5105054;28;20203;-75
2022/09/28 09:38:50;;;;;;;3.90;2.43;;;;;;;-141.28;100.00;52132.53;5104833;28;20208;-78
2022/09/28 09:41:27;;;;;;;5.90;2.57;;;;;;;-141.28;100.00;52075.56;5092605;28;20229;-77
2022/09/28 09:44:14;;;;;;;11.17;2.77;;;;;;;-141.28;100.00;52069.69;5111015;28;20194;-76
2022/09/28 09:46:47;;;;;;;10.33;2.73;;;;;;;-141.28;100.00;51979.34;5111181;28;20217;-76
2022/09/28 09:49:19;;;;;;;4.57;2.03;;;;;;;-141.28;100.00;51841.88;5112504;28;20194;-77
2022/09/28 09:51:51;;;;;;;6.93;2.63;;;;;;;-141.28;100.00;51798.69;5094839;28;20283;-75
2022/09/28 09:54:24;;;;;;;7.00;2.23;;;;;;;-141.28;100.00;51885.09;5091788;28;20216;-75
2022/09/28 09:56:57;;;;;;;5.37;1.97;;;;;;;-141.28;100.00;51716.22;5091431;28;20613;-76
2022/09/28 09:59:32;;;;;;;3.30;2.10;;;;;;;-141.28;100.00;51739.78;5091810;28;20205;-75
2022/09/28 10:02:02;;;;;;;8.40;2.47;;;;;;;-141.28;100.00;51708.38;5073509;28;20196;-77
2022/09/28 10:04:37;;;;;;;8.60;2.47;;;;;;;-141.28;100.00;51688.72;5098011;28;20725;-78
2022/09/28 10:07:06;;;;;;;5.57;2.50;;;;;;;-141.28;100.00;51649.47;5091522;28;20541;-77
2022/09/28 10:09:38;;;;;;;5.00;2.17;;;;;;;-141.28;100.00;51614.13;5103473;28;20195;-76
2022/09/28 10:12:08;;;;;;;7.80;2.80;;;;;;;-141.28;100.00;51710.31;5100340;28;20282;-75
2022/09/28 10:14:37;;;;;;;5.03;2.30;;;;;;;-141.28;100.00;51743.72;5107901;28;20242;-76
2022/09/28 10:17:05;;;;;;;5.27;2.27;;;;;;;-141.28;100.00;51751.56;5094880;28;20199;-74
2022/09/28 10:19:34;;;;;;;4.17;2.20;;;;;;;-141.28;100.00;51686.75;5101217;28;20219;-74
2022/09/28 10:22:04;;;;;;;5.57;2.20;;;;;;;-141.28;100.00;51716.22;5090496;28;20195;-76
2022/09/28 10:24:38;;;;;;;7.47;2.43;;;;;;;-141.28;100.00;51665.16;5106668;28;20191;-76
2022/09/28 10:27:08;;;;;;;5.47;2.37;;;;;;;-141.28;100.00;51704.44;5097959;28;20196;-76
2022/09/28 10:29:45;;;;;;;11.63;2.70;;;;;;;-141.28;100.00;51568.94;5108848;28;20195;-76
2022/09/28 10:32:24;;;;;;;8.67;2.47;;;;;;;-141.28;100.00;51504.16;5093360;28;20208;-75
2022/09/28 10:34:53;;;;;;;12.03;2.30;;;;;;;-141.28;100.00;51413.84;5098740;28;20227;-76
2022/09/28 10:37:23;;;;;;;7.13;2.10;;;;;;;-141.28;100.00;51087.94;5104911;28;20195;-76
2022/09/28 10:39:53;;;;;;;5.37;2.30;;;;;;;-141.28;100.00;50569.69;5110052;28;20195;-77
2022/09/28 10:42:23;;;;;;;5.77;2.27;;;;;;;-141.28;100.00;50367.50;5106003;28;20622;-76
2022/09/28 10:44:56;;;;;;;4.90;2.27;;;;;;;-141.28;100.00;50393.03;5110202;28;20222;-75
2022/09/28 10:47:26;;;;;;;3.97;1.70;;;;;;;-141.28;100.00;50506.88;5094875;28;20613;-78
2022/09/28 10:49:55;;;;;;;7.17;2.07;;;;;;;-141.28;100.00;50334.13;5106215;28;20549;-76
2022/09/28 10:52:32;;;;;;;3.00;2.00;;;;;;;-141.28;100.00;50224.22;5108630;28;20678;-76
2022/09/28 10:55:00;;;;;;;8.63;1.90;;;;;;;-141.28;100.00;50137.88;5102820;28;20234;-76
2022/09/28 10:57:30;;;;;;;3.87;1.80;;;;;;;-141.28;100.00;49965.16;5089309;28;20187;-75
2022/09/28 10:59:57;;;;;;;2.97;1.93;;;;;;;-141.28;100.00;49443.16;5093185;28;20604;-76
2022/09/28 11:02:26;;;;;;;5.50;1.60;;;;;;;-141.28;100.00;49197.88;5089628;28;20188;-76
2022/09/28 11:04:56;;;;;;;7.73;1.70;;;;;;;-141.28;100.00;48974.19;5105559;28;20248;-76
2022/09/28 11:07:26;;;;;;;3.17;1.60;;;;;;;-141.28;100.00;48854.53;5100477;28;20200;-78
2022/09/28 11:09:55;;;;;;;3.50;1.70;;;;;;;-141.28;100.00;48882.00;5096335;28;20192;-77
2022/09/28 11:12:27;;;;;;;4.30;2.10;;;;;;;-141.28;100.00;48827.06;5098628;28;20284;-76
2022/09/28 11:15:00;;;;;;;3.00;1.73;;;;;;;-141.28;100.00;48791.75;5103794;28;20226;-76
2022/09/28 11:17:31;;;;;;;3.40;2.07;;;;;;;-141.28;100.00;48791.75;5105657;28;20197;-76
2022/09/28 11:20:00;;;;;;;3.03;1.63;;;;;;;-141.28;100.00;48770.16;5107747;28;20222;-74
2022/09/28 11:22:29;;;;;;;4.43;2.00;;;;;;;-141.28;100.00;48803.50;5110115;28;20192;-75
2022/09/28 11:25:19;;;;;;;8.90;2.00;;;;;;;-141.28;100.00;48827.06;5106634;28;20209;-77
2022/09/28 11:27:59;;;;;;;2.80;1.57;;;;;;;-141.28;100.00;48880.03;5099232;28;20593;-75
2022/09/28 11:30:29;;;;;;;2.53;1.80;;;;;;;-141.28;100.00;48891.78;5101255;28;20203;-75